This is the latest recevied weather packets stored in our database for station/object K1AWR. If no packets are shown the sender has not sent any weather packets the latest 1 day(s).
| Time | Temp. | Humidity | Pressure | Rain* | Wind** | Luminosity | Snow |
|---|---|---|---|---|---|---|---|
| 1778033829 | 17.78° C | 65% | 1010.6 hPa | 0 mm | - | 0 W/m² | - |
| 1778033526 | 17.78° C | 63% | 1010.3 hPa | 0 mm | - | 0 W/m² | - |
| 1778033223 | 17.78° C | 64% | 1010.6 hPa | 0 mm | - | 0 W/m² | - |
| 1778032921 | 17.78° C | 64% | 1010.4 hPa | 0 mm | - | 0 W/m² | - |
| 1778032618 | 17.78° C | 62% | 1010.4 hPa | 0 mm | - | 0 W/m² | - |
| 1778031708 | 17.78° C | 62% | 1010.2 hPa | 0 mm | - | 0 W/m² | - |
| 1778031406 | 17.78° C | 62% | 1010.3 hPa | 0 mm | - | 0 W/m² | - |
| 1778031103 | 17.78° C | 62% | 1010.2 hPa | 0 mm | - | 0 W/m² | - |
| 1778030799 | 18.33° C | 62% | 1010.2 hPa | 0 mm | - | 0 W/m² | - |
| 1778030496 | 18.33° C | 61% | 1010.1 hPa | 0 mm | - | 0 W/m² | - |
| 1778029285 | 18.89° C | 60% | 1009.9 hPa | 0 mm | - | 0 W/m² | - |
| 1778028982 | 18.89° C | 60% | 1009.7 hPa | 0 mm | - | 0 W/m² | - |
| 1778028678 | 18.89° C | 59% | 1009.6 hPa | 0 mm | - | 0 W/m² | - |
| 1778028375 | 18.89° C | 60% | 1009.7 hPa | 0 mm | - | 0 W/m² | - |
| 1778028072 | 18.89° C | 59% | 1009.7 hPa | 0 mm | - | 0 W/m² | - |
| 1778027769 | 19.44° C | 59% | 1009.5 hPa | 0 mm | - | 0 W/m² | - |
| 1778027161 | 19.44° C | 58% | 1009.4 hPa | 0 mm | - | 0 W/m² | - |
| 1778026857 | 19.44° C | 59% | 1009.4 hPa | 0 mm | - | 0 W/m² | - |
| 1778026553 | 19.44° C | 58% | 1009.4 hPa | 0 mm | - | 0 W/m² | - |
| 1778025948 | 20° C | 57% | 1009 hPa | 0 mm | - | 0 W/m² | - |
| 1778025040 | 20° C | 59% | 1008.9 hPa | 0 mm | - | 2 W/m² | - |
| 1778022619 | 21.11° C | 55% | 1008.4 hPa | 0 mm | - | 19 W/m² | - |
| 1778019889 | 22.78° C | 51% | 1007.9 hPa | 0 mm | - | 56 W/m² | - |
| 1778018072 | 23.89° C | 50% | 1007.7 hPa | 0 mm | - | 126 W/m² | - |
| 1778017467 | 23.89° C | 48% | 1007.8 hPa | 0 mm | - | 82 W/m² | - |
* Rain latest hour (hover to see other rain measurements)
** Current wind speed in m/s (hover to see current wind gust speed)